createdAt,value
2022-10-22T00:00:36.452Z,6.90
2022-10-22T00:10:58.567Z,7.68
2022-10-22T00:21:00.662Z,9.52
2022-10-22T00:31:03.169Z,6.75
2022-10-22T00:41:05.515Z,7.60
2022-10-22T00:51:08.555Z,8.50
2022-10-22T01:01:17.532Z,8.00
2022-10-22T01:11:31.831Z,7.65
2022-10-22T01:21:47.841Z,8.40
2022-10-22T01:32:00.695Z,8.18
2022-10-22T01:42:02.792Z,8.55
2022-10-22T01:52:46.952Z,8.57
2022-10-22T02:02:55.180Z,8.23
2022-10-22T02:13:00.052Z,8.13
2022-10-22T02:23:03.669Z,6.78
2022-10-22T02:33:17.919Z,6.40
2022-10-22T02:43:20.042Z,4.50
2022-10-22T02:53:22.101Z,6.35
2022-10-22T03:03:24.229Z,7.07
2022-10-22T03:13:26.305Z,5.22
2022-10-22T03:23:28.766Z,4.85
2022-10-22T03:33:30.853Z,4.88
2022-10-22T03:43:35.457Z,5.40
2022-10-22T03:53:37.595Z,3.78
2022-10-22T04:03:40.603Z,4.00
2022-10-22T04:13:43.582Z,3.72
2022-10-22T04:23:47.661Z,3.78
2022-10-22T04:33:54.717Z,4.95
2022-10-22T04:43:57.907Z,7.20
2022-10-22T04:54:00.224Z,10.88
2022-10-22T05:04:04.335Z,9.38
2022-10-22T05:14:07.884Z,10.23
2022-10-22T05:24:09.971Z,9.23
2022-10-22T05:34:12.335Z,12.02
2022-10-22T05:44:14.448Z,13.48
2022-10-22T05:54:19.242Z,10.48
2022-10-22T06:04:21.719Z,10.15
2022-10-22T06:14:25.123Z,12.52
2022-10-22T06:24:27.179Z,13.25
2022-10-22T06:34:29.248Z,10.93
2022-10-22T06:44:31.417Z,9.00
2022-10-22T06:54:33.601Z,12.80
2022-10-22T07:04:36.437Z,15.93
2022-10-22T07:14:38.677Z,18.67
2022-10-22T07:24:40.820Z,18.20
2022-10-22T07:34:43.895Z,18.42
2022-10-22T07:44:46.191Z,15.80
2022-10-22T07:54:48.293Z,16.23
2022-10-22T08:04:50.455Z,12.40
2022-10-22T08:14:52.656Z,14.40
2022-10-22T08:24:54.785Z,17.92
2022-10-22T08:34:57.282Z,25.80
2022-10-22T08:45:23.850Z,19.08
2022-10-22T08:55:26.533Z,25.65
2022-10-22T09:05:48.504Z,21.15
2022-10-22T09:15:58.038Z,24.77
2022-10-22T09:26:00.965Z,2.55
2022-10-22T09:36:07.008Z,2.42
2022-10-22T09:46:17.915Z,2.20
2022-10-22T09:56:37.944Z,2.88
2022-10-22T10:06:43.008Z,4.35
2022-10-22T10:16:53.308Z,6.65
2022-10-22T10:27:05.312Z,3.33
2022-10-22T10:37:30.511Z,3.70
2022-10-22T10:47:50.982Z,2.92
2022-10-22T10:58:09.760Z,3.38
2022-10-22T11:08:19.215Z,3.97
2022-10-22T11:18:32.306Z,3.95
2022-10-22T11:28:40.467Z,2.85
2022-10-22T11:38:42.792Z,2.67
2022-10-22T11:49:00.623Z,2.22
2022-10-22T11:59:03.005Z,2.20
2022-10-22T12:09:07.359Z,2.13
2022-10-22T12:19:18.715Z,9.43
2022-10-22T12:29:26.804Z,3.90
2022-10-22T12:49:41.075Z,2.78
2022-10-22T12:59:49.995Z,1.67
2022-10-22T13:09:59.900Z,1.60
2022-10-22T13:20:15.181Z,2.33
2022-10-22T13:30:30.356Z,1.70
2022-10-22T13:40:32.461Z,1.55
2022-10-22T13:50:34.673Z,1.30
2022-10-22T14:00:38.946Z,1.88
2022-10-22T14:10:41.099Z,2.30
2022-10-22T14:20:43.308Z,1.70
2022-10-22T14:30:46.490Z,1.73
2022-10-22T14:40:49.199Z,2.42
2022-10-22T14:50:51.545Z,1.80
2022-10-22T15:00:53.785Z,2.42
2022-10-22T15:11:05.427Z,1.90
2022-10-22T15:21:19.078Z,2.55
2022-10-22T15:31:42.651Z,7.50
2022-10-22T15:41:44.764Z,18.92
2022-10-22T15:51:46.942Z,5.63
2022-10-22T16:01:50.199Z,3.38
2022-10-22T16:22:15.866Z,4.70
2022-10-22T16:32:18.053Z,16.75
2022-10-22T16:42:20.205Z,4.72
2022-10-22T16:52:22.293Z,7.93
2022-10-22T17:02:24.388Z,17.85
2022-10-22T17:12:26.998Z,14.48
2022-10-22T17:22:29.379Z,16.92
2022-10-22T17:32:31.961Z,27.02
2022-10-22T17:42:34.330Z,24.92
2022-10-22T17:52:36.511Z,20.20
2022-10-22T18:02:38.899Z,22.80
2022-10-22T18:12:41.364Z,15.70
2022-10-22T18:22:45.443Z,13.98
2022-10-22T18:32:47.556Z,14.80
2022-10-22T18:42:49.657Z,17.23
2022-10-22T18:52:51.878Z,15.77
2022-10-22T19:02:55.014Z,16.00
2022-10-22T19:12:57.291Z,19.40
2022-10-22T19:23:00.589Z,22.77
2022-10-22T19:33:02.736Z,26.25
2022-10-22T19:43:04.968Z,26.67
2022-10-22T19:53:07.035Z,17.90
2022-10-22T20:03:09.118Z,22.48
2022-10-22T20:13:11.208Z,18.98
2022-10-22T20:23:13.323Z,11.13
2022-10-22T20:40:13.089Z,9.50
2022-10-22T20:50:15.241Z,10.73
2022-10-22T21:00:17.520Z,8.27
2022-10-22T21:10:19.706Z,6.85
2022-10-22T21:20:24.585Z,7.10
2022-10-22T21:30:27.088Z,9.95
2022-10-22T21:40:29.232Z,8.38
2022-10-22T21:50:31.509Z,4.25
2022-10-22T22:00:34.916Z,2.92
2022-10-22T22:10:37.039Z,3.63
2022-10-22T22:20:39.179Z,2.45
2022-10-22T22:30:41.278Z,2.90
2022-10-22T22:40:43.595Z,2.80
2022-10-22T22:50:45.759Z,5.88
2022-10-22T23:00:47.866Z,5.07
2022-10-22T23:10:49.967Z,11.52
2022-10-22T23:20:53.267Z,10.98
2022-10-22T23:30:55.602Z,8.88
2022-10-22T23:40:57.882Z,8.95
2022-10-22T23:51:11.798Z,10.38
